Time;durP1;ratioP1;P1;durP2;ratioP2;P2;SDS_P1;SDS_P2;PMS_P1;PMS_P2;Temp;Humidity;BMP_temperature;BMP_pressure;BME280_temperature;BME280_humidity;BME280_pressure;Samples;Min_cycle;Max_cycle;Signal;HPM_P1;HPM_P2
2022/01/14 00:02:01;;;;;;;68.00;29.52;;;;;;;1.11;78.72;99729.81;5110433;28;20474;-67
2022/01/14 00:04:26;;;;;;;62.53;27.00;;;;;;;1.07;78.99;99742.06;5110491;28;20072;-67
2022/01/14 00:06:53;;;;;;;60.00;26.52;;;;;;;1.06;79.34;99732.31;5110139;28;20090;-67
2022/01/14 00:09:18;;;;;;;67.45;28.23;;;;;;;1.06;78.90;99737.72;5110732;28;20023;-68
2022/01/14 00:11:50;;;;;;;65.80;27.67;;;;;;;1.08;79.27;99735.63;5110323;28;20030;-67
2022/01/14 00:16:42;;;;;;;64.50;27.20;;;;;;;1.11;79.01;99737.13;5110213;28;20034;-67
2022/01/14 00:19:08;;;;;;;64.60;28.02;;;;;;;1.09;78.84;99734.59;5110337;28;20022;-68
2022/01/14 00:21:36;;;;;;;71.55;29.73;;;;;;;1.08;79.46;99727.53;5091933;28;20111;-66
2022/01/14 00:24:12;;;;;;;79.28;31.23;;;;;;;1.06;79.12;99721.50;5110392;28;20027;-67
2022/01/14 00:32:09;;;;;;;69.55;30.08;;;;;;;1.06;78.85;99712.56;5109188;28;20146;-66
2022/01/14 00:34:35;;;;;;;62.88;27.25;;;;;;;1.03;78.96;99711.09;5109430;28;20036;-66
2022/01/14 00:37:01;;;;;;;64.90;28.52;;;;;;;1.01;78.42;99721.28;5109548;28;20456;-66
2022/01/14 00:39:27;;;;;;;68.50;29.75;;;;;;;1.01;78.87;99718.59;5110103;28;20028;-66
2022/01/14 00:41:52;;;;;;;68.97;28.65;;;;;;;0.99;78.79;99720.66;5109717;28;20048;-66
2022/01/14 00:44:18;;;;;;;68.15;28.45;;;;;;;0.93;78.81;99719.59;5110227;28;20136;-66
2022/01/14 00:46:46;;;;;;;61.45;27.75;;;;;;;0.91;79.03;99723.53;5091057;28;20028;-66
2022/01/14 00:49:13;;;;;;;61.22;26.02;;;;;;;0.86;79.56;99727.66;5091516;28;20026;-67
2022/01/14 00:51:39;;;;;;;68.97;28.23;;;;;;;0.85;79.26;99726.00;5109781;28;20509;-66
2022/01/14 00:54:05;;;;;;;63.20;25.73;;;;;;;0.84;79.49;99735.13;5109958;28;20023;-65
2022/01/14 00:56:44;;;;;;;56.97;25.67;;;;;;;0.84;79.56;99735.13;5108633;28;20027;-67
2022/01/14 00:59:14;;;;;;;56.77;27.37;;;;;;;0.84;79.29;99726.19;5109833;28;20056;-66
2022/01/14 01:01:52;;;;;;;59.97;28.55;;;;;;;0.86;79.33;99714.16;5091605;28;20521;-66
2022/01/14 01:04:20;;;;;;;60.20;27.02;;;;;;;0.86;79.41;99707.91;5109922;28;20028;-67
2022/01/14 01:06:47;;;;;;;57.20;27.98;;;;;;;0.86;79.33;99708.75;5109481;28;20038;-66
2022/01/14 01:09:13;;;;;;;56.45;24.48;;;;;;;0.88;79.40;99708.53;5109461;28;20245;-66
2022/01/14 01:11:50;;;;;;;52.80;25.65;;;;;;;0.87;79.58;99701.47;5110036;28;20051;-66
2022/01/14 01:14:22;;;;;;;54.25;25.88;;;;;;;0.87;79.26;99696.94;5109113;28;20023;-66
2022/01/14 01:16:47;;;;;;;54.58;23.90;;;;;;;0.87;79.33;99706.88;5109278;28;20031;-66
2022/01/14 01:19:13;;;;;;;49.35;23.35;;;;;;;0.86;79.10;99721.41;5109876;28;20024;-66
2022/01/14 01:21:39;;;;;;;50.50;23.88;;;;;;;0.87;79.24;99710.44;5110559;28;20024;-66
2022/01/14 01:24:05;;;;;;;46.85;22.77;;;;;;;0.91;79.40;99713.56;5113682;28;20030;-67
2022/01/14 01:26:35;;;;;;;49.83;24.08;;;;;;;0.94;79.19;99710.44;5113249;28;20042;-66
2022/01/14 01:31:41;;;;;;;51.38;23.95;;;;;;;0.93;79.44;99707.97;5113525;28;20040;-66
2022/01/14 01:34:15;;;;;;;54.03;23.67;;;;;;;0.88;79.39;99720.19;5113590;28;20479;-66
2022/01/14 01:36:42;;;;;;;53.58;22.88;;;;;;;0.87;79.30;99707.72;5094110;28;20112;-66
2022/01/14 01:39:16;;;;;;;49.03;22.85;;;;;;;0.85;79.57;99709.78;5113250;28;20149;-66
2022/01/14 01:42:05;;;;;;;47.08;21.67;;;;;;;0.83;79.13;99709.16;5113093;28;20428;-67
2022/01/14 01:44:32;;;;;;;49.40;21.63;;;;;;;0.83;79.36;99706.47;5113300;28;20093;-67
2022/01/14 01:46:59;;;;;;;52.90;23.65;;;;;;;0.86;79.95;99710.63;5113691;28;20282;-67
2022/01/14 01:49:30;;;;;;;47.83;22.92;;;;;;;0.87;79.32;99712.28;5113325;28;20019;-67
2022/01/14 01:51:56;;;;;;;48.75;20.98;;;;;;;0.91;79.74;99718.94;5113902;27;20039;-66
2022/01/14 01:54:22;;;;;;;45.63;21.38;;;;;;;1.00;79.58;99719.63;5094589;28;20387;-66
2022/01/14 01:56:51;;;;;;;43.50;19.77;;;;;;;1.06;79.93;99707.97;5093699;28;20024;-66
2022/01/14 01:59:21;;;;;;;43.67;20.00;;;;;;;1.10;79.61;99701.16;5112988;28;20038;-66
2022/01/14 02:01:46;;;;;;;;;;;;;;;1.14;80.14;99699.69;5111227;28;20023;-66
2022/01/14 02:04:12;;;;;;;37.38;17.40;;;;;;;1.16;79.82;99692.22;5113096;28;20485;-66
2022/01/14 02:06:39;;;;;;;35.80;16.88;;;;;;;1.17;79.93;99691.19;5112484;28;20031;-66
2022/01/14 02:09:06;;;;;;;35.30;17.65;;;;;;;1.19;80.17;99686.41;5112082;28;20099;-67
2022/01/14 02:11:32;;;;;;;39.22;19.92;;;;;;;1.21;79.89;99686.22;5094450;28;20087;-67
2022/01/14 02:14:01;;;;;;;41.88;20.40;;;;;;;1.22;79.38;99685.19;5094055;28;20111;-66
2022/01/14 02:16:58;;;;;;;42.58;20.35;;;;;;;1.23;79.42;99673.31;5091838;28;20031;-67
2022/01/14 02:19:25;;;;;;;39.03;19.60;;;;;;;1.24;79.95;99676.88;5111584;28;20032;-67
2022/01/14 02:24:57;;;;;;;40.17;19.98;;;;;;;1.21;79.61;99671.88;5111665;28;20122;-67
2022/01/14 02:27:21;;;;;;;38.05;18.10;;;;;;;1.22;79.53;99676.22;5111647;28;20028;-67
2022/01/14 02:29:46;;;;;;;38.28;17.90;;;;;;;1.20;79.09;99671.03;5094258;28;20023;-67
2022/01/14 02:32:12;;;;;;;37.63;17.75;;;;;;;1.23;79.46;99667.09;5112317;28;20493;-66
2022/01/14 02:34:38;;;;;;;36.42;17.90;;;;;;;1.22;79.33;99666.28;5111196;28;20077;-67
2022/01/14 02:37:05;;;;;;;34.05;16.77;;;;;;;1.24;79.68;99672.28;5091676;28;20074;-66
2022/01/14 02:39:30;;;;;;;34.00;17.15;;;;;;;1.25;79.84;99659.59;5112186;28;20149;-67
2022/01/14 02:41:56;;;;;;;36.90;18.52;;;;;;;1.25;79.32;99665.84;5112390;28;20130;-67
2022/01/14 02:44:27;;;;;;;34.72;17.05;;;;;;;1.29;79.44;99671.69;5112185;28;20026;-66
2022/01/14 02:46:58;;;;;;;33.30;17.13;;;;;;;1.34;79.76;99666.50;5111762;28;20530;-67
2022/01/14 02:49:27;;;;;;;37.78;17.40;;;;;;;1.34;80.03;99664.59;5112370;28;20670;-68
2022/01/14 02:51:53;;;;;;;35.67;15.68;;;;;;;1.36;79.45;99650.91;5111985;28;20145;-66
2022/01/14 02:54:24;;;;;;;31.33;16.83;;;;;;;1.39;79.83;99655.06;5111996;28;20110;-66
2022/01/14 02:56:53;;;;;;;33.28;16.55;;;;;;;1.42;79.66;99646.53;5110470;28;20028;-67
2022/01/14 02:59:21;;;;;;;35.42;16.58;;;;;;;1.44;80.08;99641.75;5111853;28;20360;-66
2022/01/14 03:01:48;;;;;;;32.80;16.38;;;;;;;1.43;80.02;99648.19;5111981;28;20054;-67
2022/01/14 03:04:18;;;;;;;28.63;15.23;;;;;;;1.46;80.11;99651.31;5111678;28;20011;-67
2022/01/14 03:06:45;;;;;;;30.30;14.98;;;;;;;1.51;80.02;99652.56;5111511;28;20026;-67
2022/01/14 03:09:10;;;;;;;30.13;15.55;;;;;;;1.53;79.85;99650.47;5111755;28;20039;-67
2022/01/14 03:11:39;;;;;;;29.45;16.88;;;;;;;1.51;79.52;99647.16;5112126;28;20550;-66
2022/01/14 03:14:05;;;;;;;29.67;15.38;;;;;;;1.48;79.13;99646.53;5110034;28;20474;-67
2022/01/14 03:16:38;;;;;;;36.13;16.77;;;;;;;1.44;79.19;99639.88;5093368;28;20024;-66
2022/01/14 03:19:12;;;;;;;34.13;16.38;;;;;;;1.43;79.23;99627.38;5093119;28;20074;-67
2022/01/14 03:21:42;;;;;;;31.75;16.60;;;;;;;1.38;79.16;99635.31;5110907;28;20429;-67
2022/01/14 03:26:41;;;;;;;32.88;16.30;;;;;;;1.32;80.08;99631.53;5111152;28;20031;-67
2022/01/14 03:29:07;;;;;;;31.70;15.82;;;;;;;1.30;79.53;99625.50;5109728;28;20032;-67
2022/01/14 03:31:33;;;;;;;35.20;16.52;;;;;;;1.34;79.30;99631.34;5111241;28;20039;-67
2022/01/14 03:33:58;;;;;;;34.30;15.90;;;;;;;1.31;79.38;99631.75;5110663;28;20463;-67
2022/01/14 03:36:24;;;;;;;31.05;15.52;;;;;;;1.30;79.04;99628.22;5107466;28;20027;-67
2022/01/14 03:38:50;;;;;;;32.85;16.63;;;;;;;1.30;79.50;99627.41;5109221;28;20023;-67
2022/01/14 03:41:15;;;;;;;30.80;16.23;;;;;;;1.31;79.77;99629.06;5091911;28;20074;-67
2022/01/14 03:43:41;;;;;;;37.08;18.38;;;;;;;1.33;79.24;99629.69;5092098;28;20032;-67
2022/01/14 03:46:07;;;;;;;35.35;17.17;;;;;;;1.32;79.60;99622.63;5111320;28;20047;-67
2022/01/14 03:48:32;;;;;;;33.83;17.15;;;;;;;1.31;79.37;99629.06;5111548;28;20371;-66
2022/01/14 03:50:58;;;;;;;33.65;18.00;;;;;;;1.33;79.55;99621.59;5111761;28;20473;-66
2022/01/14 03:53:24;;;;;;;32.17;16.30;;;;;;;1.33;79.54;99618.88;5111822;28;20027;-66
2022/01/14 03:55:49;;;;;;;30.88;15.77;;;;;;;1.32;79.63;99615.31;5112179;28;20028;-67
2022/01/14 03:58:15;;;;;;;36.53;18.77;;;;;;;1.33;79.93;99610.78;5111120;28;20024;-67
2022/01/14 04:00:40;;;;;;;32.25;15.80;;;;;;;1.32;79.63;99609.09;5111457;28;20522;-66
2022/01/14 04:03:07;;;;;;;31.40;16.30;;;;;;;1.32;79.60;99603.69;5091783;28;20501;-67
2022/01/14 04:05:32;;;;;;;28.67;15.77;;;;;;;1.36;79.38;99610.34;5110544;28;20028;-67
2022/01/14 04:07:58;;;;;;;29.77;15.48;;;;;;;1.39;79.60;99604.53;5090268;28;20483;-67
2022/01/14 04:10:25;;;;;;;32.03;15.63;;;;;;;1.40;79.42;99597.25;5111923;28;20028;-66
2022/01/14 04:12:59;;;;;;;30.80;16.15;;;;;;;1.40;79.88;99598.09;5111871;28;20020;-67
2022/01/14 04:15:38;;;;;;;32.80;16.45;;;;;;;1.43;79.50;99599.53;5111551;28;20103;-67
2022/01/14 04:18:18;;;;;;;35.20;16.10;;;;;;;1.46;79.46;99596.41;5110762;28;20031;-67
2022/01/14 04:20:44;;;;;;;;;;;;;;;1.43;79.92;99597.66;5111898;28;20058;-66
2022/01/14 04:23:13;;;;;;;35.35;18.58;;;;;;;1.42;79.44;99589.75;5092233;28;19961;-66
2022/01/14 04:25:39;;;;;;;34.50;16.13;;;;;;;1.42;79.83;99598.72;5111260;28;20027;-66
2022/01/14 04:28:05;;;;;;;35.15;16.58;;;;;;;1.43;79.17;99605.75;5109797;27;20611;-69
2022/01/14 04:30:32;;;;;;;34.17;16.45;;;;;;;1.47;79.64;99598.91;5110609;28;20036;-67
2022/01/14 04:32:58;;;;;;;31.17;16.23;;;;;;;1.46;79.42;99594.53;5088828;28;20399;-66
2022/01/14 04:35:26;;;;;;;34.58;17.60;;;;;;;1.43;79.38;99597.66;5091352;28;20487;-66
2022/01/14 04:37:53;;;;;;;37.72;18.30;;;;;;;1.41;79.31;99583.53;5109983;28;20106;-67
2022/01/14 04:40:18;;;;;;;28.80;15.57;;;;;;;1.41;79.80;99572.72;5109724;28;20121;-67
2022/01/14 04:42:44;;;;;;;33.97;15.75;;;;;;;1.36;79.47;99571.66;5110645;28;20027;-67
2022/01/14 04:45:12;;;;;;;33.75;16.38;;;;;;;1.31;79.45;99567.72;5110397;28;20032;-66
2022/01/14 04:47:46;;;;;;;31.55;15.95;;;;;;;1.30;79.40;99563.34;5109768;28;20043;-68
2022/01/14 04:50:18;;;;;;;32.88;15.70;;;;;;;1.33;79.69;99570.22;5110272;28;20034;-66
2022/01/14 04:52:46;;;;;;;38.10;19.88;;;;;;;1.34;79.55;99566.47;5110544;28;20055;-67
2022/01/14 04:55:13;;;;;;;39.60;20.80;;;;;;;1.31;79.00;99565.00;5109478;28;20027;-67
2022/01/14 04:57:40;;;;;;;29.55;15.55;;;;;;;1.34;79.73;99561.06;5111979;28;20055;-67
2022/01/14 05:00:09;;;;;;;34.65;15.52;;;;;;;1.35;79.57;99543.81;5111811;28;20618;-68
2022/01/14 05:02:35;;;;;;;40.00;19.27;;;;;;;1.31;79.05;99548.78;5114365;28;20028;-66
2022/01/14 05:05:01;;;;;;;38.67;18.75;;;;;;;1.26;79.51;99545.88;5113808;28;20433;-66
2022/01/14 05:07:27;;;;;;;37.00;17.33;;;;;;;1.26;79.50;99542.34;5113950;28;20100;-68
2022/01/14 05:10:48;;;;;;;35.63;17.63;;;;;;;1.19;79.06;99543.19;5115307;28;20051;-67
2022/01/14 05:12:42;;;;;;;36.10;17.45;;;;;;;1.19;79.27;99547.78;5109028;28;20035;-67
2022/01/14 05:15:09;;;;;;;38.70;18.23;;;;;;;1.18;79.49;99543.41;5114516;28;20046;-68
2022/01/14 05:17:34;;;;;;;37.85;17.75;;;;;;;1.19;79.59;99540.47;5114690;28;20036;-67
2022/01/14 05:20:00;;;;;;;33.60;16.77;;;;;;;1.16;78.98;99535.50;5113993;28;20027;-68
2022/01/14 05:22:27;;;;;;;37.72;17.67;;;;;;;1.14;79.08;99537.56;5113827;28;20467;-67
2022/01/14 05:24:53;;;;;;;42.67;18.58;;;;;;;1.09;79.52;99534.66;5113758;28;20066;-68
2022/01/14 05:27:19;;;;;;;36.95;16.55;;;;;;;1.06;79.35;99529.66;5113408;28;20020;-68
2022/01/14 05:29:44;;;;;;;39.83;18.70;;;;;;;1.02;79.81;99534.66;5114516;28;20020;-67
2022/01/14 05:32:13;;;;;;;37.00;17.75;;;;;;;0.98;79.46;99527.19;5113403;28;20689;-67
2022/01/14 05:34:40;;;;;;;31.40;16.27;;;;;;;0.99;79.16;99531.56;5113540;28;20020;-67
2022/01/14 05:37:05;;;;;;;35.05;17.42;;;;;;;1.03;79.81;99532.78;5113005;28;20119;-68
2022/01/14 05:39:31;;;;;;;41.45;19.05;;;;;;;1.03;79.44;99527.38;5113430;28;20447;-67
2022/01/14 05:41:58;;;;;;;34.88;15.68;;;;;;;1.06;79.53;99521.56;5113480;28;20048;-69
2022/01/14 05:44:24;;;;;;;34.58;17.10;;;;;;;1.07;79.71;99514.31;5113613;28;20023;-69
2022/01/14 05:46:51;;;;;;;32.17;16.23;;;;;;;1.05;79.31;99514.50;5113027;28;20493;-69
2022/01/14 05:49:17;;;;;;;34.58;17.65;;;;;;;1.06;79.30;99513.44;5113600;28;20080;-68
2022/01/14 05:51:43;;;;;;;39.95;17.85;;;;;;;1.06;79.56;99505.34;5116751;27;20034;-70
2022/01/14 05:54:09;;;;;;;36.97;17.88;;;;;;;1.01;79.63;99511.38;5113509;28;20066;-72
2022/01/14 05:56:34;;;;;;;36.00;16.83;;;;;;;0.98;79.46;99516.38;5112755;28;20766;-71
2022/01/14 05:59:00;;;;;;;34.53;16.10;;;;;;;0.95;79.64;99500.59;5112087;28;20035;-70
2022/01/14 06:01:25;;;;;;;34.40;17.60;;;;;;;0.93;79.70;99497.25;5113671;28;20023;-69
2022/01/14 06:03:50;;;;;;;33.45;15.68;;;;;;;0.91;79.74;99500.16;5113502;28;20107;-68
2022/01/14 06:06:16;;;;;;;32.78;16.27;;;;;;;0.92;79.83;99492.91;5112433;28;20118;-68
2022/01/14 06:08:41;;;;;;;32.03;15.85;;;;;;;0.97;79.83;99501.22;5112335;28;20019;-69
2022/01/14 06:11:07;;;;;;;40.35;19.65;;;;;;;0.98;79.61;99502.88;5112833;28;20526;-69
2022/01/14 06:13:33;;;;;;;37.38;18.23;;;;;;;1.00;79.80;99501.63;5113124;28;20103;-71
2022/01/14 06:15:58;;;;;;;37.00;19.05;;;;;;;0.99;79.36;99501.84;5113033;28;20066;-69
2022/01/14 06:18:23;;;;;;;36.50;17.23;;;;;;;0.99;79.34;99509.94;5112438;28;20444;-71
2022/01/14 06:20:49;;;;;;;33.60;17.17;;;;;;;1.00;79.46;99520.53;5112952;28;20550;-71
2022/01/14 06:23:15;;;;;;;36.67;18.92;;;;;;;1.01;79.46;99516.78;5112759;28;20081;-70
2022/01/14 06:25:40;;;;;;;40.40;18.40;;;;;;;1.02;79.68;99533.81;5112755;28;20031;-70
2022/01/14 06:28:06;;;;;;;39.17;17.60;;;;;;;1.03;78.99;99530.06;5111789;28;20060;-70
2022/01/14 06:30:31;;;;;;;41.63;18.33;;;;;;;1.07;79.70;99536.72;5112317;28;20437;-68
2022/01/14 06:32:57;;;;;;;37.75;18.40;;;;;;;1.07;79.45;99547.53;5112720;28;20091;-70
2022/01/14 06:35:23;;;;;;;35.08;17.35;;;;;;;1.04;78.80;99532.59;5112587;28;20016;-70
2022/01/14 06:37:49;;;;;;;41.40;17.98;;;;;;;1.05;78.87;99536.09;5111839;28;20395;-70
2022/01/14 06:40:15;;;;;;;44.35;19.55;;;;;;;1.04;78.67;99527.19;5111961;28;20108;-69
2022/01/14 06:42:41;;;;;;;44.30;19.15;;;;;;;1.04;79.43;99529.03;5093045;28;20460;-72
2022/01/14 06:45:07;;;;;;;36.92;17.75;;;;;;;1.03;78.57;99530.94;5112249;28;20107;-70
2022/01/14 06:47:32;;;;;;;48.63;21.30;;;;;;;1.04;79.06;99543.41;5111199;28;20027;-69
2022/01/14 06:49:58;;;;;;;48.03;20.83;;;;;;;1.02;79.13;99539.22;5112448;28;20032;-69
2022/01/14 06:52:24;;;;;;;40.17;18.67;;;;;;;1.00;78.61;99544.03;5111916;28;20020;-69
2022/01/14 06:54:50;;;;;;;36.63;17.58;;;;;;;1.02;78.93;99544.63;5112013;28;20098;-69
2022/01/14 06:57:16;;;;;;;38.38;17.67;;;;;;;0.99;78.20;99539.66;5110885;28;20028;-69
2022/01/14 06:59:41;;;;;;;33.72;18.13;;;;;;;0.97;78.81;99534.44;5111464;28;20030;-69
2022/01/14 07:02:09;;;;;;;33.83;16.35;;;;;;;0.97;78.89;99530.94;5111647;28;20031;-69
2022/01/14 07:04:35;;;;;;;36.72;19.42;;;;;;;0.97;79.05;99531.75;5109833;28;20039;-70
2022/01/14 07:07:01;;;;;;;49.33;22.65;;;;;;;0.95;78.42;99533.81;5109954;28;20023;-70
2022/01/14 07:09:26;;;;;;;33.22;16.77;;;;;;;0.97;78.14;99544.44;5110327;28;20016;-69
2022/01/14 07:11:56;;;;;;;47.45;20.60;;;;;;;0.98;78.58;99532.59;5111295;28;20035;-69
2022/01/14 07:14:21;;;;;;;44.45;19.27;;;;;;;0.97;78.23;99536.34;5111610;28;20464;-69
2022/01/14 07:16:47;;;;;;;42.35;19.55;;;;;;;0.93;78.90;99521.56;5111059;28;20031;-69
2022/01/14 07:19:13;;;;;;;38.03;16.77;;;;;;;0.93;78.75;99508.06;5110904;28;20024;-70
2022/01/14 07:21:39;;;;;;;39.13;17.05;;;;;;;0.90;78.66;99512.00;5110848;28;20031;-70
2022/01/14 07:24:06;;;;;;;41.45;18.23;;;;;;;0.94;78.13;99507.03;5111385;28;20011;-69
2022/01/14 07:26:32;;;;;;;36.20;18.77;;;;;;;0.94;78.64;99505.16;5110692;28;20074;-69
2022/01/14 07:28:58;;;;;;;37.08;18.35;;;;;;;0.98;78.45;99508.28;5110443;28;20073;-69
2022/01/14 07:31:23;;;;;;;35.67;16.67;;;;;;;1.01;78.47;99505.16;5111566;28;20643;-70
2022/01/14 07:33:49;;;;;;;29.30;15.55;;;;;;;1.01;78.35;99492.47;5112335;28;20519;-70
2022/01/14 07:36:14;;;;;;;37.40;17.35;;;;;;;0.99;78.22;99493.75;5112570;28;20023;-70
2022/01/14 07:38:39;;;;;;;34.38;15.07;;;;;;;0.96;78.42;99486.03;5111863;28;20052;-70
2022/01/14 07:41:05;;;;;;;29.15;14.23;;;;;;;0.98;79.11;99497.47;5110446;27;20556;-71
2022/01/14 07:43:31;;;;;;;32.67;15.88;;;;;;;1.03;78.78;99492.25;5111455;28;20019;-70
2022/01/14 07:45:56;;;;;;;26.88;14.23;;;;;;;1.09;78.37;99485.22;5111159;28;20080;-70
2022/01/14 07:48:22;;;;;;;29.58;14.10;;;;;;;1.10;78.55;99492.28;5110830;28;20678;-70
2022/01/14 07:50:48;;;;;;;27.13;12.85;;;;;;;1.12;78.24;99491.00;5111010;28;20364;-70
2022/01/14 07:53:14;;;;;;;28.30;14.75;;;;;;;1.14;78.31;99493.53;5111140;28;20084;-70
2022/01/14 07:55:39;;;;;;;26.38;12.95;;;;;;;1.16;78.59;99489.56;5111155;28;20027;-69
2022/01/14 07:58:05;;;;;;;24.35;12.48;;;;;;;1.23;78.94;99489.53;5110856;28;20043;-70
2022/01/14 08:00:31;;;;;;;28.05;14.93;;;;;;;1.27;78.29;99492.66;5110919;28;20531;-70
2022/01/14 08:02:58;;;;;;;24.80;12.32;;;;;;;1.28;78.77;99505.16;5110508;28;20028;-71
2022/01/14 08:05:24;;;;;;;33.10;14.80;;;;;;;1.25;78.11;99502.84;5091346;28;20028;-72
2022/01/14 08:07:52;;;;;;;28.88;13.48;;;;;;;1.25;77.97;99500.97;5110017;28;20027;-70
2022/01/14 08:10:17;;;;;;;31.65;14.80;;;;;;;1.28;78.23;99502.44;5112344;27;20023;-70
2022/01/14 08:12:43;;;;;;;26.92;13.10;;;;;;;1.31;78.08;99513.66;5106673;28;20024;-69
2022/01/14 08:15:11;;;;;;;25.65;12.27;;;;;;;1.36;78.00;99499.53;5102827;28;20076;-68
2022/01/14 08:17:37;;;;;;;21.60;11.18;;;;;;;1.41;77.91;99482.66;5109128;28;20610;-69
2022/01/14 08:20:04;;;;;;;24.95;12.48;;;;;;;1.43;77.91;99472.47;5108481;28;20028;-69
2022/01/14 08:22:31;;;;;;;27.50;13.00;;;;;;;1.45;77.67;99465.81;5109631;28;20100;-68
2022/01/14 08:24:57;;;;;;;22.60;10.52;;;;;;;1.47;78.39;99455.59;5109788;28;20034;-68
2022/01/14 08:27:22;;;;;;;23.75;11.52;;;;;;;1.47;78.09;99458.31;5110180;28;20029;-69
2022/01/14 08:29:50;;;;;;;24.38;10.82;;;;;;;1.49;78.00;99467.03;5110310;28;20051;-68
2022/01/14 08:32:15;;;;;;;20.67;10.60;;;;;;;1.52;77.68;99451.44;5111222;27;20024;-69
2022/01/14 08:34:41;;;;;;;39.78;14.90;;;;;;;1.54;77.86;99452.91;5110757;28;20109;-69
2022/01/14 08:37:07;;;;;;;24.17;11.98;;;;;;;1.60;77.99;99443.09;5110266;28;20220;-68
2022/01/14 08:39:33;;;;;;;23.85;10.75;;;;;;;1.63;77.36;99440.78;5110947;28;20087;-70
2022/01/14 08:41:59;;;;;;;27.48;12.63;;;;;;;1.69;77.55;99446.41;5110168;28;20054;-68
2022/01/14 08:44:24;;;;;;;25.08;11.57;;;;;;;1.69;76.42;99446.41;5106803;28;20023;-70
2022/01/14 08:46:52;;;;;;;34.78;14.80;;;;;;;1.64;76.48;99450.56;5104917;28;20432;-69
2022/01/14 08:49:17;;;;;;;29.42;13.35;;;;;;;1.60;76.36;99435.00;5109771;28;20056;-69
2022/01/14 08:51:42;;;;;;;33.55;15.82;;;;;;;1.58;75.76;99429.81;5111131;28;20071;-69
2022/01/14 08:54:08;;;;;;;34.05;16.75;;;;;;;1.55;76.34;99427.53;5113963;28;20066;-68
2022/01/14 08:56:34;;;;;;;39.33;17.63;;;;;;;1.55;76.28;99426.69;5108542;28;20436;-68
2022/01/14 08:59:00;;;;;;;39.35;18.52;;;;;;;1.47;76.36;99423.16;5104162;28;20519;-69
2022/01/14 09:01:25;;;;;;;48.85;21.63;;;;;;;1.41;76.40;99428.59;5110445;28;20024;-70
2022/01/14 09:03:51;;;;;;;54.40;22.77;;;;;;;1.39;76.04;99419.88;5112361;28;20400;-69
2022/01/14 09:06:16;;;;;;;46.83;21.42;;;;;;;1.39;76.54;99427.97;5107961;28;20043;-68
2022/01/14 09:08:42;;;;;;;49.17;23.63;;;;;;;1.37;76.74;99433.63;5109279;28;20038;-69
2022/01/14 09:11:08;;;;;;;56.75;24.90;;;;;;;1.36;76.39;99425.69;5110063;28;20434;-68
2022/01/14 09:13:34;;;;;;;53.50;24.70;;;;;;;1.33;76.97;99425.09;5106943;28;20030;-67
2022/01/14 09:16:00;;;;;;;58.92;25.30;;;;;;;1.33;76.68;99424.28;5105052;28;20104;-67
2022/01/14 09:18:26;;;;;;;53.13;24.98;;;;;;;1.32;76.50;99414.50;5102455;28;20060;-67
2022/01/14 09:20:52;;;;;;;54.65;25.23;;;;;;;1.30;77.10;99397.66;5107948;28;20055;-66
2022/01/14 09:23:24;;;;;;;52.33;23.83;;;;;;;1.30;77.07;99384.97;5107199;28;20510;-68
2022/01/14 09:25:51;;;;;;;55.10;24.77;;;;;;;1.34;76.88;99386.19;5107933;28;20486;-67
2022/01/14 09:28:17;;;;;;;54.42;24.33;;;;;;;1.39;76.61;99388.28;5088610;28;20048;-67
2022/01/14 09:30:42;;;;;;;57.08;24.15;;;;;;;1.46;76.78;99391.78;5106140;28;20028;-68
2022/01/14 09:33:08;;;;;;;54.67;26.13;;;;;;;1.54;76.57;99382.59;5104033;28;20028;-67
2022/01/14 09:35:33;;;;;;;57.78;27.48;;;;;;;1.62;76.54;99368.84;5107523;28;20054;-68
2022/01/14 09:37:59;;;;;;;55.53;26.50;;;;;;;1.71;76.91;99380.25;5104286;28;20039;-67
2022/01/14 09:40:24;;;;;;;57.03;27.88;;;;;;;1.81;77.04;99381.66;5107758;28;20179;-67
2022/01/14 09:42:51;;;;;;;55.47;25.55;;;;;;;1.89;76.97;99382.22;5107833;28;20042;-68
2022/01/14 09:45:20;;;;;;;56.90;25.73;;;;;;;1.95;76.77;99375.13;5110048;28;20470;-68
2022/01/14 09:47:49;;;;;;;53.43;26.10;;;;;;;2.00;76.40;99358.25;5090995;28;20051;-69
2022/01/14 09:50:15;;;;;;;55.40;26.53;;;;;;;2.05;76.84;99351.13;5110443;27;20016;-70
2022/01/14 09:52:41;;;;;;;58.13;26.15;;;;;;;2.12;76.32;99348.38;5112144;27;20018;-69
2022/01/14 09:55:06;;;;;;;55.33;25.83;;;;;;;2.15;76.41;99353.34;5109780;27;20019;-70
2022/01/14 09:57:32;;;;;;;55.92;26.83;;;;;;;2.29;75.97;99358.66;5110444;28;20008;-71
2022/01/14 09:59:57;;;;;;;60.40;28.52;;;;;;;2.35;75.91;99355.09;5110633;28;20023;-68
2022/01/14 10:02:40;;;;;;;52.45;25.73;;;;;;;2.43;76.07;99349.41;5111950;28;20058;-73
2022/01/14 10:05:09;;;;;;;61.65;27.13;;;;;;;2.47;74.90;99344.38;5110850;28;20081;-69
2022/01/14 10:07:35;;;;;;;57.85;26.33;;;;;;;2.46;75.04;99331.88;5110068;28;20490;-68
2022/01/14 10:10:23;;;;;;;52.13;24.30;;;;;;;2.47;75.20;99333.53;5111155;28;20023;-69
2022/01/14 10:12:49;;;;;;;64.05;29.23;;;;;;;2.48;75.11;99330.59;5109737;28;20068;-68
2022/01/14 10:15:14;;;;;;;60.50;29.70;;;;;;;2.56;75.33;99320.53;5107204;28;20675;-68
2022/01/14 10:17:42;;;;;;;62.58;28.30;;;;;;;2.63;74.87;99332.13;5109232;28;20108;-71
2022/01/14 10:20:10;;;;;;;61.08;28.27;;;;;;;2.64;75.04;99323.81;5110412;27;20060;-72
2022/01/14 10:22:41;;;;;;;60.75;27.33;;;;;;;2.72;75.81;99325.41;5109727;28;20027;-70
2022/01/14 10:25:08;;;;;;;61.35;27.95;;;;;;;2.78;75.65;99340.75;5108656;28;20030;-71
2022/01/14 10:27:43;;;;;;;58.85;26.90;;;;;;;2.82;74.92;99341.13;5110336;27;20027;-70
2022/01/14 10:30:30;;;;;;;51.65;25.10;;;;;;;2.86;74.88;99342.34;5112091;27;20026;-71
2022/01/14 10:33:17;;;;;;;62.58;28.67;;;;;;;2.92;75.24;99338.75;5111538;27;20039;-71
2022/01/14 10:35:46;;;;;;;61.90;28.65;;;;;;;2.98;75.39;99327.00;5111004;27;20156;-69
2022/01/14 10:38:17;;;;;;;64.90;30.05;;;;;;;3.03;74.26;99318.19;5106853;28;20484;-68
2022/01/14 10:40:57;;;;;;;65.00;33.63;;;;;;;3.04;74.52;99313.63;5109452;28;20043;-68
2022/01/14 10:43:29;;;;;;;;;;;;;;;3.06;74.21;99325.88;5109118;28;20364;-69
2022/01/14 10:45:55;;;;;;;59.92;28.25;;;;;;;3.04;73.95;99319.03;5110178;28;19916;-69
2022/01/14 10:48:32;;;;;;;54.75;27.23;;;;;;;3.03;74.13;99304.63;5110008;28;20088;-68
2022/01/14 10:50:59;;;;;;;54.63;24.63;;;;;;;3.04;74.57;99310.91;5110022;28;20368;-68
2022/01/14 10:53:26;;;;;;;49.35;24.10;;;;;;;3.05;73.79;99305.25;5110575;28;20047;-68
2022/01/14 10:55:57;;;;;;;52.15;25.33;;;;;;;3.07;74.34;99305.00;5109364;28;20016;-70
2022/01/14 10:58:28;;;;;;;52.10;25.00;;;;;;;3.10;74.45;99304.56;5108993;28;20107;-70
2022/01/14 11:00:59;;;;;;;50.67;25.38;;;;;;;3.19;74.66;99316.75;5109795;28;20425;-69
2022/01/14 11:03:42;;;;;;;43.85;22.02;;;;;;;3.31;74.14;99313.28;5109755;28;20023;-68
2022/01/14 11:06:21;;;;;;;49.83;24.17;;;;;;;3.38;74.16;99295.88;5111235;28;20040;-70
2022/01/14 11:08:48;;;;;;;55.25;27.35;;;;;;;3.43;73.50;99289.78;5105335;28;20027;-72
2022/01/14 11:11:15;;;;;;;55.83;25.70;;;;;;;3.48;74.03;99289.09;5109403;28;20067;-69
2022/01/14 11:13:40;;;;;;;47.22;21.92;;;;;;;3.48;73.40;99283.66;5110140;28;20419;-69
2022/01/14 11:16:06;;;;;;;64.68;32.80;;;;;;;3.49;73.64;99275.28;5109670;28;20028;-70
2022/01/14 11:18:31;;;;;;;60.10;30.15;;;;;;;3.50;73.23;99268.00;5108614;27;20445;-71
2022/01/14 11:23:41;;;;;;;43.72;21.10;;;;;;;3.51;72.92;99256.09;5092725;28;20054;-68
2022/01/14 11:26:09;;;;;;;49.10;22.55;;;;;;;3.52;72.68;99258.56;5110163;27;20027;-69
2022/01/14 11:28:40;;;;;;;49.47;23.20;;;;;;;3.53;73.42;99243.94;5106797;28;20027;-71
2022/01/14 11:31:31;;;;;;;46.30;22.13;;;;;;;3.56;72.99;99237.22;5107704;27;20023;-70
2022/01/14 11:33:59;;;;;;;39.78;20.52;;;;;;;3.58;72.67;99240.53;5108493;28;20092;-74
2022/01/14 11:36:45;;;;;;;37.85;17.88;;;;;;;3.58;72.84;99241.34;5109042;28;20023;-71
2022/01/14 11:39:22;;;;;;;41.70;19.67;;;;;;;3.57;71.84;99236.19;5108903;28;20107;-75
2022/01/14 11:41:53;;;;;;;36.10;18.73;;;;;;;3.57;71.84;99236.19;5106667;28;20051;-71
2022/01/14 11:44:58;;;;;;;38.17;19.52;;;;;;;3.58;72.00;99241.34;5111710;27;20084;-73
2022/01/14 11:47:37;;;;;;;38.42;18.60;;;;;;;3.57;71.75;99228.84;5108116;28;20038;-73
2022/01/14 11:50:05;;;;;;;35.35;17.58;;;;;;;3.55;71.85;99235.59;5109733;28;20023;-74